createdAt,value
2018-04-09T00:00:01.110Z,0.00
2018-04-09T00:01:01.128Z,0.00
2018-04-09T00:02:54.555Z,0.00
2018-04-09T00:03:55.067Z,0.00
2018-04-09T00:05:49.545Z,0.00
2018-04-09T00:06:48.994Z,0.00
2018-04-09T00:08:43.478Z,0.00
2018-04-09T00:09:43.410Z,0.00
2018-04-09T00:11:37.854Z,0.00
2018-04-09T00:12:37.835Z,0.00
2018-04-09T00:14:33.297Z,0.00
2018-04-09T00:15:33.793Z,0.00
2018-04-09T00:17:27.239Z,0.00
2018-04-09T00:18:26.745Z,0.00
2018-04-09T00:20:21.705Z,0.00
2018-04-09T00:21:21.692Z,0.00
2018-04-09T00:23:16.153Z,0.00
2018-04-09T00:24:15.634Z,0.00
2018-04-09T00:26:10.070Z,0.00
2018-04-09T00:27:10.077Z,0.00
2018-04-09T00:29:04.511Z,0.00
2018-04-09T00:30:04.501Z,0.00
2018-04-09T00:31:59.450Z,0.00
2018-04-09T00:32:58.935Z,0.00
2018-04-09T00:34:52.363Z,0.00
2018-04-09T00:35:52.888Z,0.00
2018-04-09T00:37:46.846Z,0.00
2018-04-09T00:38:46.811Z,0.00
2018-04-09T00:40:42.268Z,0.00
2018-04-09T00:41:41.763Z,0.00
2018-04-09T00:43:35.235Z,0.00
2018-04-09T00:44:34.718Z,0.00
2018-04-09T00:46:29.140Z,0.00
2018-04-09T00:47:29.141Z,0.00
2018-04-09T00:49:23.630Z,0.00
2018-04-09T00:50:23.577Z,0.00
2018-04-09T00:52:18.030Z,0.00
2018-04-09T00:53:18.532Z,0.00
2018-04-09T00:55:12.977Z,0.00
2018-04-09T00:56:12.486Z,0.00
2018-04-09T00:58:06.925Z,0.00
2018-04-09T00:59:06.913Z,0.00
2018-04-09T01:01:01.875Z,0.00
2018-04-09T01:02:01.375Z,0.00
2018-04-09T01:03:55.835Z,0.00
2018-04-09T01:04:55.331Z,0.00
2018-04-09T01:06:49.233Z,0.00
2018-04-09T01:07:49.240Z,0.00
2018-04-09T01:09:42.708Z,0.00
2018-04-09T01:10:42.678Z,0.00
2018-04-09T01:12:36.169Z,0.00
2018-04-09T01:13:36.123Z,0.00
2018-04-09T01:15:30.612Z,0.00
2018-04-09T01:16:31.101Z,0.00
2018-04-09T01:18:25.033Z,0.00
2018-04-09T01:19:25.052Z,0.00
2018-04-09T01:21:19.488Z,0.00
2018-04-09T01:22:19.483Z,0.00
2018-04-09T01:24:13.955Z,0.00
2018-04-09T01:25:13.939Z,0.00
2018-04-09T01:27:10.395Z,0.00
2018-04-09T01:28:08.901Z,0.00
2018-04-09T01:30:01.833Z,0.00
2018-04-09T01:31:02.334Z,0.00
2018-04-09T01:32:56.784Z,0.00
2018-04-09T01:33:56.261Z,0.00
2018-04-09T01:35:50.722Z,0.00
2018-04-09T01:36:50.689Z,0.00
2018-04-09T01:38:44.093Z,0.00
2018-04-09T01:39:44.105Z,0.00
2018-04-09T01:41:37.554Z,0.00
2018-04-09T01:42:38.052Z,0.00
2018-04-09T01:44:34.502Z,0.00
2018-04-09T01:45:33.485Z,0.00
2018-04-09T01:47:26.945Z,0.00
2018-04-09T01:48:26.922Z,0.00
2018-04-09T01:50:21.354Z,0.00
2018-04-09T01:51:21.362Z,0.00
2018-04-09T01:53:15.319Z,0.00
2018-04-09T01:54:14.797Z,0.00
2018-04-09T01:56:08.758Z,0.00
2018-04-09T01:58:21.698Z,0.00
2018-04-09T01:59:21.689Z,0.00
2018-04-09T02:01:15.135Z,0.00
2018-04-09T02:02:15.128Z,0.00
2018-04-09T02:04:09.604Z,0.00
2018-04-09T02:05:10.098Z,0.00
2018-04-09T02:07:04.530Z,0.00
2018-04-09T02:08:03.520Z,0.00
2018-04-09T02:09:57.955Z,0.00
2018-04-09T02:10:57.965Z,0.00
2018-04-09T02:12:51.904Z,0.00
2018-04-09T02:13:51.895Z,0.00
2018-04-09T02:15:45.367Z,0.00
2018-04-09T02:16:45.326Z,0.00
2018-04-09T02:18:39.801Z,0.00
2018-04-09T02:19:39.728Z,0.00
2018-04-09T02:21:34.177Z,0.00
2018-04-09T02:22:34.173Z,0.00
2018-04-09T02:24:29.629Z,0.00
2018-04-09T02:25:28.614Z,0.00
2018-04-09T02:27:23.572Z,0.00
2018-04-09T02:28:22.568Z,0.00
2018-04-09T02:30:15.475Z,0.00
2018-04-09T02:31:15.489Z,0.00
2018-04-09T02:33:09.453Z,0.00
2018-04-09T02:34:08.944Z,0.00
2018-04-09T02:36:03.365Z,0.00
2018-04-09T02:37:03.381Z,0.00
2018-04-09T02:38:57.808Z,0.00
2018-04-09T02:39:57.775Z,0.00
2018-04-09T02:41:53.247Z,0.00
2018-04-09T02:42:52.231Z,0.00
2018-04-09T02:44:46.668Z,0.00
2018-04-09T02:45:47.183Z,0.00
2018-04-09T02:47:41.117Z,0.00
2018-04-09T02:48:41.623Z,0.00
2018-04-09T02:50:35.582Z,0.00
2018-04-09T02:51:35.556Z,0.00
2018-04-09T02:53:29.007Z,0.00
2018-04-09T02:54:29.002Z,0.00
2018-04-09T02:56:23.436Z,0.00
2018-04-09T02:57:23.961Z,0.00
2018-04-09T02:59:17.915Z,0.00
2018-04-09T03:00:17.855Z,0.00
2018-04-09T03:02:12.301Z,0.00
2018-04-09T03:03:12.295Z,0.00
2018-04-09T03:05:06.262Z,0.00
2018-04-09T03:06:06.268Z,0.00
2018-04-09T03:08:00.190Z,0.00
2018-04-09T03:09:00.172Z,0.00
2018-04-09T03:10:53.637Z,0.00
2018-04-09T03:11:53.616Z,0.00
2018-04-09T03:13:47.561Z,0.00
2018-04-09T03:14:47.566Z,0.00
2018-04-09T03:16:41.511Z,0.00
2018-04-09T03:17:41.498Z,0.00
2018-04-09T03:19:35.950Z,0.00
2018-04-09T03:20:35.921Z,0.00
2018-04-09T03:22:30.892Z,0.00
2018-04-09T03:23:30.360Z,0.00
2018-04-09T03:25:25.320Z,0.00
2018-04-09T03:26:24.816Z,0.00
2018-04-09T03:28:19.244Z,0.00
2018-04-09T03:29:19.240Z,0.00
2018-04-09T03:31:14.201Z,0.00
2018-04-09T03:32:13.678Z,0.00
2018-04-09T03:34:08.644Z,0.00
2018-04-09T03:35:08.143Z,0.00
2018-04-09T03:37:01.586Z,0.00
2018-04-09T03:38:01.566Z,0.00
2018-04-09T03:39:55.997Z,0.00
2018-04-09T03:40:56.009Z,0.00
2018-04-09T03:42:49.960Z,0.00
2018-04-09T03:43:49.444Z,0.00
2018-04-09T03:45:43.891Z,0.00
2018-04-09T03:46:44.419Z,0.00
2018-04-09T03:48:38.832Z,0.00
2018-04-09T03:49:38.317Z,0.00
2018-04-09T03:51:31.786Z,0.00
2018-04-09T03:52:31.749Z,0.00
2018-04-09T03:54:27.190Z,0.00
2018-04-09T03:55:26.173Z,0.00
2018-04-09T03:57:20.619Z,0.00
2018-04-09T03:58:20.647Z,0.00
2018-04-09T04:00:15.068Z,0.00
2018-04-09T04:01:14.082Z,0.00
2018-04-09T04:03:07.511Z,0.00
2018-04-09T04:04:07.511Z,0.00
2018-04-09T04:06:02.465Z,0.00
2018-04-09T04:07:01.945Z,0.00
2018-04-09T04:08:55.353Z,0.00
2018-04-09T04:09:55.352Z,0.00
2018-04-09T04:11:48.778Z,0.00
2018-04-09T04:12:48.805Z,0.00
2018-04-09T04:14:42.271Z,0.00
2018-04-09T04:15:42.251Z,0.00
2018-04-09T04:17:36.730Z,0.00
2018-04-09T04:18:36.218Z,0.00
2018-04-09T04:20:30.664Z,0.00
2018-04-09T04:21:30.158Z,0.00
2018-04-09T04:23:24.602Z,0.00
2018-04-09T04:24:24.620Z,0.00
2018-04-09T04:26:18.551Z,0.00
2018-04-09T04:27:18.551Z,0.00
2018-04-09T04:29:12.516Z,0.00
2018-04-09T04:30:12.477Z,0.00
2018-04-09T04:32:05.899Z,0.00
2018-04-09T04:33:05.914Z,0.00
2018-04-09T04:34:59.394Z,0.00
2018-04-09T04:35:59.347Z,0.00
2018-04-09T04:37:54.307Z,0.00
2018-04-09T04:38:53.796Z,0.00
2018-04-09T04:40:48.281Z,0.00
2018-04-09T04:41:48.234Z,0.00
2018-04-09T04:43:42.690Z,0.00
2018-04-09T04:44:41.685Z,0.00
2018-04-09T04:46:36.654Z,5.63
2018-04-09T04:47:36.127Z,5.63
2018-04-09T04:49:30.102Z,5.63
2018-04-09T04:50:29.548Z,5.63
2018-04-09T04:52:24.513Z,11.25
2018-04-09T04:53:23.983Z,11.25
2018-04-09T04:55:18.451Z,11.25
2018-04-09T04:56:18.458Z,16.88
2018-04-09T04:58:11.881Z,16.88
2018-04-09T04:59:11.893Z,22.50
2018-04-09T05:01:05.856Z,22.50
2018-04-09T05:02:05.333Z,28.13
2018-04-09T05:03:59.773Z,33.75
2018-04-09T05:04:59.774Z,33.75
2018-04-09T05:06:53.198Z,39.38
2018-04-09T05:07:53.718Z,45.00
2018-04-09T05:09:46.642Z,45.00
2018-04-09T05:10:46.641Z,45.00
2018-04-09T05:12:41.615Z,50.63
2018-04-09T05:13:41.073Z,50.63
2018-04-09T05:15:35.554Z,56.25
2018-04-09T05:16:35.498Z,56.25
2018-04-09T05:18:29.904Z,61.88
2018-04-09T05:19:29.915Z,61.88
2018-04-09T05:21:24.346Z,67.50
2018-04-09T05:22:24.352Z,67.50
2018-04-09T05:24:17.792Z,67.50
2018-04-09T05:25:17.806Z,67.50
2018-04-09T05:27:12.304Z,67.50
2018-04-09T05:28:12.285Z,73.13
2018-04-09T05:30:06.733Z,73.13
2018-04-09T05:31:06.729Z,78.75
2018-04-09T05:33:01.691Z,84.38
2018-04-09T05:34:01.174Z,90.00
2018-04-09T05:35:54.645Z,90.00
2018-04-09T05:36:54.626Z,95.63
2018-04-09T05:38:48.105Z,95.63
2018-04-09T05:39:48.581Z,95.63
2018-04-09T05:41:41.515Z,95.63
2018-04-09T05:42:41.484Z,95.63
2018-04-09T05:44:35.926Z,101.25
2018-04-09T05:45:35.950Z,101.25
2018-04-09T05:47:30.375Z,106.88
2018-04-09T05:48:30.373Z,106.88
2018-04-09T05:50:24.810Z,112.50
2018-04-09T05:51:25.349Z,106.88
2018-04-09T05:53:19.297Z,112.50
2018-04-09T05:54:19.267Z,112.50
2018-04-09T05:56:14.261Z,112.50
2018-04-09T05:57:13.714Z,118.13
2018-04-09T05:59:08.120Z,123.75
2018-04-09T06:00:08.147Z,123.75
2018-04-09T06:02:01.603Z,129.38
2018-04-09T06:03:02.076Z,129.38
2018-04-09T06:04:56.543Z,129.38
2018-04-09T06:05:57.447Z,129.38
2018-04-09T06:07:49.970Z,135.00
2018-04-09T06:08:49.445Z,135.00
2018-04-09T06:10:42.883Z,135.00
2018-04-09T06:11:42.904Z,140.63
2018-04-09T06:13:37.350Z,140.63
2018-04-09T06:14:37.349Z,146.25
2018-04-09T06:16:31.834Z,146.25
2018-04-09T06:17:31.785Z,140.63
2018-04-09T06:19:25.752Z,140.63
2018-04-09T06:20:25.194Z,140.63
2018-04-09T06:22:19.150Z,146.25
2018-04-09T06:23:18.642Z,151.88
2018-04-09T06:25:13.087Z,146.25
2018-04-09T06:26:13.615Z,146.25
2018-04-09T06:28:07.555Z,151.88
2018-04-09T06:29:07.530Z,157.50
2018-04-09T06:31:01.499Z,174.38
2018-04-09T06:32:01.013Z,180.00
2018-04-09T06:33:55.463Z,185.63
2018-04-09T06:34:55.970Z,185.63
2018-04-09T06:36:48.890Z,185.63
2018-04-09T06:37:48.883Z,180.00
2018-04-09T06:39:42.348Z,180.00
2018-04-09T06:40:42.317Z,180.00
2018-04-09T06:42:37.266Z,174.38
2018-04-09T06:43:39.206Z,174.38
2018-04-09T06:45:30.241Z,174.38
2018-04-09T06:46:30.206Z,174.38
2018-04-09T06:48:25.203Z,185.63
2018-04-09T06:49:24.696Z,191.25
2018-04-09T06:51:19.132Z,185.63
2018-04-09T06:52:19.124Z,185.63
2018-04-09T06:54:14.577Z,180.00
2018-04-09T06:55:14.080Z,174.38
2018-04-09T06:57:08.048Z,174.38
2018-04-09T06:58:08.038Z,168.75
2018-04-09T07:00:02.496Z,174.38
2018-04-09T07:01:02.505Z,180.00
2018-04-09T07:02:55.965Z,180.00
2018-04-09T07:03:55.952Z,180.00
2018-04-09T07:05:50.416Z,180.00
2018-04-09T07:06:49.391Z,180.00
2018-04-09T07:08:44.344Z,191.25
2018-04-09T07:09:43.825Z,196.88
2018-04-09T07:11:38.292Z,208.13
2018-04-09T07:12:38.248Z,208.13
2018-04-09T07:14:33.224Z,219.38
2018-04-09T07:15:32.705Z,230.63
2018-04-09T07:17:26.181Z,236.25
2018-04-09T07:18:26.658Z,241.88
2018-04-09T07:21:53.242Z,264.38
2018-04-09T07:22:52.722Z,270.00
2018-04-09T07:24:46.199Z,281.25
2018-04-09T07:25:46.167Z,281.25
2018-04-09T07:27:40.639Z,292.50
2018-04-09T07:28:42.623Z,292.50
2018-04-09T07:30:34.111Z,292.50
2018-04-09T07:31:34.594Z,292.50
2018-04-09T07:33:27.526Z,298.13
2018-04-09T07:34:27.526Z,298.13
2018-04-09T07:36:21.486Z,309.38
2018-04-09T07:37:20.975Z,309.38
2018-04-09T07:39:14.400Z,315.00
2018-04-09T07:40:14.401Z,315.00
2018-04-09T07:42:07.846Z,309.38
2018-04-09T07:43:07.848Z,309.38
2018-04-09T07:45:01.288Z,315.00
2018-04-09T07:46:01.296Z,315.00
2018-04-09T07:47:56.752Z,315.00
2018-04-09T07:48:55.770Z,309.38
2018-04-09T07:50:49.198Z,309.38
2018-04-09T07:51:49.233Z,309.38
2018-04-09T07:53:44.672Z,309.38
2018-04-09T07:54:42.687Z,309.38
2018-04-09T07:56:36.648Z,315.00
2018-04-09T07:57:36.128Z,320.63
2018-04-09T07:59:29.600Z,320.63
2018-04-09T08:00:29.583Z,320.63
2018-04-09T08:02:24.564Z,320.63
2018-04-09T08:03:23.045Z,326.25
2018-04-09T08:05:16.999Z,348.75
2018-04-09T08:06:17.057Z,343.13
2018-04-09T08:08:10.973Z,326.25
2018-04-09T08:09:10.965Z,320.63
2018-04-09T08:11:06.914Z,331.88
2018-04-09T08:12:04.423Z,343.13
2018-04-09T08:13:57.876Z,360.00
2018-04-09T08:14:58.376Z,360.00
2018-04-09T08:16:52.330Z,371.25
2018-04-09T08:17:52.325Z,371.25
2018-04-09T08:19:45.808Z,360.00
2018-04-09T08:20:45.799Z,354.38
2018-04-09T08:22:39.763Z,343.13
2018-04-09T08:23:39.252Z,343.13
2018-04-09T08:25:33.208Z,365.63
2018-04-09T08:26:33.216Z,365.63
2018-04-09T08:28:27.181Z,382.50
2018-04-09T08:29:26.189Z,388.13
2018-04-09T08:31:20.621Z,399.38
2018-04-09T08:32:20.642Z,416.25
2018-04-09T08:34:14.104Z,405.00
2018-04-09T08:35:14.086Z,405.00
2018-04-09T08:37:07.534Z,410.63
2018-04-09T08:38:07.538Z,399.38
2018-04-09T08:40:02.438Z,393.75
2018-04-09T08:41:00.983Z,399.38
2018-04-09T08:42:54.950Z,399.38
2018-04-09T08:43:54.486Z,393.75
2018-04-09T08:45:48.421Z,371.25
2018-04-09T08:46:47.917Z,371.25
2018-04-09T08:48:41.389Z,371.25
2018-04-09T08:49:41.332Z,371.25
2018-04-09T08:51:36.794Z,376.88
2018-04-09T08:52:34.808Z,382.50
2018-04-09T08:54:28.268Z,393.75
2018-04-09T08:55:28.816Z,399.38
2018-04-09T08:57:21.733Z,416.25
2018-04-09T08:58:21.721Z,427.50
2018-04-09T09:00:16.177Z,444.38
2018-04-09T09:01:16.162Z,444.38
2018-04-09T09:03:09.624Z,438.75
2018-04-09T09:04:09.621Z,433.13
2018-04-09T09:06:03.614Z,416.25
2018-04-09T09:07:03.085Z,405.00
2018-04-09T09:08:57.057Z,382.50
2018-04-09T09:09:56.498Z,388.13
2018-04-09T09:11:50.954Z,399.38
2018-04-09T09:12:50.954Z,410.63
2018-04-09T09:14:45.405Z,416.25
2018-04-09T09:15:44.417Z,416.25
2018-04-09T09:17:39.872Z,427.50
2018-04-09T09:18:38.876Z,427.50
2018-04-09T09:20:33.845Z,421.88
2018-04-09T09:21:33.350Z,421.88
2018-04-09T09:23:27.288Z,427.50
2018-04-09T09:24:26.807Z,438.75
2018-04-09T09:26:20.269Z,455.63
2018-04-09T09:27:20.253Z,466.88
2018-04-09T09:29:16.216Z,461.25
2018-04-09T09:30:14.673Z,483.75
2018-04-09T09:32:09.152Z,523.13
2018-04-09T09:33:09.143Z,528.75
2018-04-09T09:35:03.644Z,511.88
2018-04-09T09:36:04.122Z,506.25
2018-04-09T09:37:58.583Z,478.13
2018-04-09T09:38:58.059Z,450.00
2018-04-09T09:40:51.530Z,421.88
2018-04-09T09:41:52.029Z,410.63
2018-04-09T09:43:44.976Z,421.88
2018-04-09T09:44:45.492Z,433.13
2018-04-09T09:46:39.449Z,472.50
2018-04-09T09:47:40.452Z,483.75
2018-04-09T09:49:32.421Z,495.00
2018-04-09T09:50:32.433Z,495.00
2018-04-09T09:52:26.384Z,511.88
2018-04-09T09:53:26.362Z,528.75
2018-04-09T09:55:21.320Z,540.00
2018-04-09T09:56:20.821Z,517.50
2018-04-09T09:58:15.281Z,489.38
2018-04-09T09:59:15.293Z,483.75
2018-04-09T10:01:07.767Z,466.88
2018-04-09T10:02:07.746Z,455.63
2018-04-09T10:04:01.721Z,466.88
2018-04-09T10:05:01.208Z,472.50
2018-04-09T10:06:58.099Z,489.38
2018-04-09T10:07:55.665Z,495.00
2018-04-09T10:09:49.112Z,495.00
2018-04-09T10:10:49.125Z,506.25
2018-04-09T10:12:44.094Z,511.88
2018-04-09T10:13:43.582Z,511.88
2018-04-09T10:15:38.568Z,511.88
2018-04-09T10:16:38.054Z,506.25
2018-04-09T10:18:33.015Z,495.00
2018-04-09T10:19:32.490Z,495.00
2018-04-09T10:21:26.959Z,478.13
2018-04-09T10:22:27.442Z,472.50
2018-04-09T10:24:20.413Z,483.75
2018-04-09T10:25:20.414Z,500.63
2018-04-09T10:27:14.365Z,517.50
2018-04-09T10:28:14.376Z,517.50
2018-04-09T10:30:07.350Z,495.00
2018-04-09T10:31:07.315Z,483.75
2018-04-09T10:33:00.788Z,483.75
2018-04-09T10:34:00.776Z,495.00
2018-04-09T10:35:54.753Z,506.25
2018-04-09T10:36:54.744Z,500.63
2018-04-09T10:38:47.675Z,483.75
2018-04-09T10:39:48.199Z,472.50
2018-04-09T10:41:41.129Z,444.38
2018-04-09T10:42:42.134Z,433.13
2018-04-09T10:44:34.642Z,427.50
2018-04-09T10:45:35.546Z,433.13
2018-04-09T10:47:28.093Z,466.88
2018-04-09T10:48:28.073Z,472.50
2018-04-09T10:50:21.526Z,472.50
2018-04-09T10:51:22.044Z,495.00
2018-04-09T10:53:15.003Z,551.25
2018-04-09T10:54:14.996Z,573.75
2018-04-09T10:56:08.469Z,579.38
2018-04-09T10:57:08.484Z,579.38
2018-04-09T10:59:01.926Z,590.63
2018-04-09T11:00:01.889Z,579.38
2018-04-09T11:01:56.853Z,573.75
2018-04-09T11:02:55.346Z,573.75
2018-04-09T11:04:48.826Z,534.38
2018-04-09T11:05:48.814Z,495.00
2018-04-09T11:07:42.275Z,466.88
2018-04-09T11:08:42.260Z,472.50
2018-04-09T11:10:35.715Z,478.13
2018-04-09T11:11:35.714Z,478.13
2018-04-09T11:13:29.221Z,478.13
2018-04-09T11:14:29.199Z,483.75
2018-04-09T11:16:23.166Z,489.38
2018-04-09T11:17:22.661Z,489.38
2018-04-09T11:19:16.105Z,489.38
2018-04-09T11:20:16.644Z,489.38
2018-04-09T11:22:10.592Z,483.75
2018-04-09T11:23:10.562Z,478.13
2018-04-09T11:25:05.048Z,483.75
2018-04-09T11:26:05.047Z,495.00
2018-04-09T11:28:00.506Z,489.38
2018-04-09T11:28:59.507Z,495.00
2018-04-09T11:30:52.994Z,489.38
2018-04-09T11:31:52.995Z,489.38
2018-04-09T11:33:47.466Z,511.88
2018-04-09T11:34:47.477Z,517.50
2018-04-09T11:36:41.957Z,506.25
2018-04-09T11:37:43.441Z,500.63
2018-04-09T11:39:35.409Z,511.88
2018-04-09T11:40:35.402Z,511.88
2018-04-09T11:42:29.857Z,523.13
2018-04-09T11:43:29.882Z,528.75
2018-04-09T11:45:24.320Z,528.75
2018-04-09T11:46:24.326Z,528.75
2018-04-09T11:48:18.280Z,523.13
2018-04-09T11:49:17.783Z,523.13
2018-04-09T11:51:12.253Z,534.38
2018-04-09T11:52:12.247Z,551.25
2018-04-09T11:54:06.716Z,579.38
2018-04-09T11:55:05.713Z,579.38
2018-04-09T11:57:00.691Z,556.88
2018-04-09T11:58:00.193Z,540.00
2018-04-09T11:59:54.657Z,500.63
2018-04-09T12:00:54.656Z,483.75
2018-04-09T12:02:49.115Z,466.88
2018-04-09T12:03:48.146Z,466.88
2018-04-09T12:05:42.630Z,466.88
2018-04-09T12:06:42.610Z,466.88
2018-04-09T12:08:37.555Z,483.75
2018-04-09T12:09:37.029Z,495.00
2018-04-09T12:11:32.976Z,517.50
2018-04-09T12:12:31.980Z,523.13
2018-04-09T12:14:25.935Z,540.00
2018-04-09T12:15:24.995Z,545.63
2018-04-09T12:17:19.434Z,534.38
2018-04-09T12:18:18.424Z,517.50
2018-04-09T12:20:12.887Z,500.63
2018-04-09T12:21:12.907Z,489.38
2018-04-09T12:23:06.353Z,500.63
2018-04-09T12:24:06.867Z,511.88
2018-04-09T12:26:00.810Z,540.00
2018-04-09T12:27:00.835Z,551.25
2018-04-09T12:28:54.788Z,562.50
2018-04-09T12:29:54.256Z,556.88
2018-04-09T12:31:48.708Z,534.38
2018-04-09T12:32:48.718Z,523.13
2018-04-09T12:34:43.152Z,506.25
2018-04-09T12:35:43.180Z,489.38
2018-04-09T12:37:37.645Z,478.13
2018-04-09T12:38:36.656Z,461.25
2018-04-09T12:40:31.083Z,444.38
2018-04-09T12:41:31.089Z,438.75
2018-04-09T12:43:26.089Z,433.13
2018-04-09T12:44:25.582Z,433.13
2018-04-09T12:46:19.548Z,421.88
2018-04-09T12:47:20.053Z,421.88
2018-04-09T12:49:14.522Z,427.50
2018-04-09T12:50:13.497Z,427.50
2018-04-09T12:52:08.484Z,427.50
2018-04-09T12:53:08.459Z,427.50
2018-04-09T12:55:02.404Z,416.25
2018-04-09T12:56:02.430Z,410.63
2018-04-09T12:57:56.880Z,399.38
2018-04-09T12:58:56.876Z,399.38
2018-04-09T13:01:12.400Z,399.38
2018-04-09T13:02:44.775Z,405.00
2018-04-09T13:03:44.808Z,405.00
2018-04-09T13:05:38.282Z,399.38
2018-04-09T13:06:39.264Z,399.38
2018-04-09T13:08:32.735Z,393.75
2018-04-09T13:09:32.734Z,388.13
2018-04-09T13:11:27.196Z,376.88
2018-04-09T13:12:27.194Z,365.63
2018-04-09T13:14:20.680Z,343.13
2018-04-09T13:15:20.656Z,331.88
2018-04-09T13:17:15.142Z,326.25
2018-04-09T13:18:15.120Z,320.63
2018-04-09T13:20:09.096Z,315.00
2018-04-09T13:21:08.606Z,315.00
2018-04-09T13:23:03.063Z,320.63
2018-04-09T13:24:03.561Z,326.25
2018-04-09T13:25:56.504Z,337.50
2018-04-09T13:26:56.515Z,348.75
2018-04-09T13:28:49.996Z,365.63
2018-04-09T13:29:49.949Z,371.25
2018-04-09T13:31:44.426Z,382.50
2018-04-09T13:32:44.914Z,382.50
2018-04-09T13:34:39.875Z,388.13
2018-04-09T13:35:38.876Z,393.75
2018-04-09T13:37:34.338Z,405.00
2018-04-09T13:38:33.360Z,405.00
2018-04-09T13:40:27.805Z,405.00
2018-04-09T13:41:27.802Z,399.38
2018-04-09T13:43:22.761Z,382.50
2018-04-09T13:44:22.245Z,371.25
2018-04-09T13:46:16.730Z,371.25
2018-04-09T13:47:17.719Z,376.88
2018-04-09T13:49:10.125Z,382.50
2018-04-09T13:50:10.140Z,382.50
2018-04-09T13:52:04.613Z,382.50
2018-04-09T13:53:04.608Z,371.25
2018-04-09T13:54:59.586Z,376.88
2018-04-09T13:55:59.069Z,382.50
2018-04-09T13:57:52.547Z,393.75
2018-04-09T13:58:52.547Z,405.00
2018-04-09T14:00:46.038Z,416.25
2018-04-09T14:01:45.993Z,416.25
2018-04-09T14:03:41.460Z,427.50
2018-04-09T14:04:40.481Z,433.13
2018-04-09T14:06:38.597Z,427.50
2018-04-09T14:07:38.584Z,421.88
2018-04-09T14:09:33.084Z,405.00
2018-04-09T14:10:33.555Z,393.75
2018-04-09T14:12:28.515Z,371.25
2018-04-09T14:13:28.511Z,360.00
2018-04-09T14:15:22.483Z,354.38
2018-04-09T14:16:21.479Z,360.00
2018-04-09T14:18:15.957Z,365.63
2018-04-09T14:19:15.472Z,371.25
2018-04-09T14:21:10.414Z,410.63
2018-04-09T14:22:09.932Z,416.25
2018-04-09T14:24:03.357Z,427.50
2018-04-09T14:25:03.388Z,438.75
2018-04-09T14:26:58.758Z,461.25
2018-04-09T14:27:57.837Z,472.50
2018-04-09T14:29:54.299Z,489.38
2018-04-09T14:30:53.795Z,500.63
2018-04-09T14:32:47.772Z,500.63
2018-04-09T14:33:47.277Z,511.88
2018-04-09T14:35:42.699Z,506.25
2018-04-09T14:36:42.721Z,483.75
2018-04-09T14:38:36.145Z,427.50
2018-04-09T14:39:36.154Z,405.00
2018-04-09T14:41:30.123Z,360.00
2018-04-09T14:42:30.136Z,337.50
2018-04-09T14:44:25.582Z,309.38
2018-04-09T14:45:25.618Z,298.13
2018-04-09T14:47:20.543Z,292.50
2018-04-09T14:48:21.049Z,298.13
2018-04-09T14:50:14.515Z,303.75
2018-04-09T14:51:14.518Z,309.38
2018-04-09T14:53:09.973Z,303.75
2018-04-09T14:54:10.472Z,298.13
2018-04-09T14:56:03.946Z,286.88
2018-04-09T14:57:03.940Z,281.25
2018-04-09T14:59:00.898Z,281.25
2018-04-09T14:59:59.897Z,281.25
2018-04-09T15:01:55.341Z,281.25
2018-04-09T15:02:55.403Z,286.88
2018-04-09T15:04:51.345Z,286.88
2018-04-09T15:05:51.320Z,286.88
2018-04-09T15:07:47.300Z,292.50
2018-04-09T15:08:47.789Z,292.50
2018-04-09T15:10:44.263Z,298.13
2018-04-09T15:12:56.738Z,315.00
2018-04-09T15:13:56.718Z,320.63
2018-04-09T15:15:50.220Z,309.38
2018-04-09T15:16:51.170Z,303.75
2018-04-09T15:18:47.157Z,292.50
2018-04-09T15:19:44.634Z,286.88
2018-04-09T15:21:39.095Z,286.88
2018-04-09T15:22:39.081Z,292.50
2018-04-09T15:24:33.576Z,292.50
2018-04-09T15:25:33.546Z,292.50
2018-04-09T15:27:28.026Z,286.88
2018-04-09T15:28:28.529Z,286.88
2018-04-09T15:30:22.485Z,281.25
2018-04-09T15:31:22.504Z,281.25
2018-04-09T15:33:16.976Z,286.88
2018-04-09T15:34:16.941Z,286.88
2018-04-09T15:36:12.898Z,281.25
2018-04-09T15:37:13.896Z,281.25
2018-04-09T15:39:08.897Z,281.25
2018-04-09T15:40:09.384Z,275.63
2018-04-09T15:42:04.805Z,270.00
2018-04-09T15:43:06.291Z,264.38
2018-04-09T15:45:01.307Z,247.50
2018-04-09T15:46:01.761Z,241.88
2018-04-09T15:47:57.231Z,230.63
2018-04-09T15:48:57.234Z,225.00
2018-04-09T15:50:52.706Z,213.75
2018-04-09T15:51:52.692Z,208.13
2018-04-09T15:53:48.680Z,202.50
2018-04-09T15:54:48.654Z,202.50
2018-04-09T15:56:45.563Z,202.50
2018-04-09T15:57:44.627Z,196.88
2018-04-09T15:59:38.048Z,185.63
2018-04-09T16:00:38.073Z,191.25
2018-04-09T16:02:32.527Z,191.25
2018-04-09T16:03:32.532Z,191.25
2018-04-09T16:05:28.496Z,191.25
2018-04-09T16:06:29.039Z,191.25
2018-04-09T16:08:24.984Z,191.25
2018-04-09T16:09:24.495Z,185.63
2018-04-09T16:11:20.976Z,185.63
2018-04-09T16:12:20.456Z,180.00
2018-04-09T16:14:15.862Z,174.38
2018-04-09T16:15:15.931Z,168.75
2018-04-09T16:17:10.908Z,157.50
2018-04-09T16:18:11.402Z,151.88
2018-04-09T16:20:04.360Z,140.63
2018-04-09T16:21:04.360Z,140.63
2018-04-09T16:22:58.819Z,129.38
2018-04-09T16:23:59.319Z,129.38
2018-04-09T16:25:54.774Z,123.75
2018-04-09T16:26:56.213Z,123.75
2018-04-09T16:28:48.267Z,118.13
2018-04-09T16:29:48.206Z,118.13
2018-04-09T16:31:42.641Z,118.13
2018-04-09T16:32:42.667Z,118.13
2018-04-09T16:34:41.619Z,112.50
2018-04-09T16:35:40.770Z,112.50
2018-04-09T16:37:37.235Z,106.88
2018-04-09T16:38:36.726Z,106.88
2018-04-09T16:40:32.669Z,106.88
2018-04-09T16:41:34.109Z,106.88
2018-04-09T16:43:26.612Z,112.50
2018-04-09T16:44:25.692Z,112.50
2018-04-09T16:46:19.152Z,112.50
2018-04-09T16:47:19.137Z,112.50
2018-04-09T16:49:13.607Z,112.50
2018-04-09T16:50:13.105Z,112.50
2018-04-09T16:52:08.554Z,112.50
2018-04-09T16:53:07.053Z,112.50
2018-04-09T16:55:03.027Z,112.50
2018-04-09T16:56:03.017Z,112.50
2018-04-09T16:57:57.986Z,101.25
2018-04-09T16:58:57.519Z,101.25
2018-04-09T17:00:52.488Z,106.88
2018-04-09T17:01:51.974Z,106.88
2018-04-09T17:03:48.942Z,101.25
2018-04-09T17:04:47.951Z,106.88
2018-04-09T17:06:44.418Z,112.50
2018-04-09T17:07:44.005Z,112.50
2018-04-09T17:09:38.464Z,118.13
2018-04-09T17:10:38.449Z,118.13
2018-04-09T17:12:32.395Z,118.13
2018-04-09T17:13:32.423Z,118.13
2018-04-09T17:15:27.367Z,118.13
2018-04-09T17:16:26.867Z,112.50
2018-04-09T17:18:22.319Z,106.88
2018-04-09T17:19:22.345Z,106.88
2018-04-09T17:21:17.784Z,95.63
2018-04-09T17:22:16.823Z,95.63
2018-04-09T17:24:11.274Z,90.00
2018-04-09T17:25:12.273Z,90.00
2018-04-09T17:27:06.733Z,84.38
2018-04-09T17:28:05.738Z,84.38
2018-04-09T17:29:59.703Z,78.75
2018-04-09T17:30:59.197Z,73.13
2018-04-09T17:32:53.687Z,67.50
2018-04-09T17:33:53.681Z,61.88
2018-04-09T17:35:47.157Z,56.25
2018-04-09T17:36:47.161Z,56.25
2018-04-09T17:38:42.549Z,50.63
2018-04-09T17:39:42.139Z,50.63
2018-04-09T17:41:37.551Z,45.00
2018-04-09T17:42:37.555Z,45.00
2018-04-09T17:44:33.519Z,39.38
2018-04-09T17:45:33.007Z,33.75
2018-04-09T17:47:28.991Z,33.75
2018-04-09T17:48:28.989Z,33.75
2018-04-09T17:50:22.462Z,28.13
2018-04-09T17:51:22.953Z,28.13
2018-04-09T17:53:16.935Z,22.50
2018-04-09T17:54:17.421Z,22.50
2018-04-09T17:56:11.361Z,22.50
2018-04-09T17:57:11.913Z,16.88
2018-04-09T17:59:07.355Z,16.88
2018-04-09T18:00:05.827Z,16.88
2018-04-09T18:02:00.782Z,11.25
2018-04-09T18:03:00.796Z,11.25
2018-04-09T18:04:55.260Z,11.25
2018-04-09T18:05:54.754Z,11.25
2018-04-09T18:07:49.234Z,5.63
2018-04-09T18:08:49.214Z,5.63
2018-04-09T18:10:45.146Z,5.63
2018-04-09T18:11:45.140Z,5.63
2018-04-09T18:13:38.636Z,5.63
2018-04-09T18:14:39.125Z,5.63
2018-04-09T18:16:33.593Z,0.00
2018-04-09T18:17:33.076Z,0.00
2018-04-09T18:19:29.035Z,0.00
2018-04-09T18:20:29.516Z,0.00
2018-04-09T18:22:24.933Z,0.00
2018-04-09T18:23:25.435Z,0.00
2018-04-09T18:25:20.911Z,0.00
2018-04-09T18:26:20.908Z,0.00
2018-04-09T18:28:16.384Z,0.00
2018-04-09T18:29:15.864Z,0.00
2018-04-09T18:31:10.754Z,0.00
2018-04-09T18:32:09.843Z,0.00